sensor_id;sensor_type;location;lat;lon;timestamp;pressure;altitude;pressure_sealevel;temperature
65290;BMP180;51893;59.754;10.110;2022-08-03T00:02:18;100587.20;;;16.50
65290;BMP180;51893;59.754;10.110;2022-08-03T00:04:46;100592.60;;;16.50
65290;BMP180;51893;59.754;10.110;2022-08-03T00:07:14;100595.00;;;16.50
65290;BMP180;51893;59.754;10.110;2022-08-03T00:09:43;100601.40;;;16.50
65290;BMP180;51893;59.754;10.110;2022-08-03T00:12:11;100604.00;;;16.54
65290;BMP180;51893;59.754;10.110;2022-08-03T00:14:39;100606.60;;;16.60
65290;BMP180;51893;59.754;10.110;2022-08-03T00:17:08;100608.40;;;16.60
65290;BMP180;51893;59.754;10.110;2022-08-03T00:19:36;100610.80;;;16.70
65290;BMP180;51893;59.754;10.110;2022-08-03T00:22:03;100612.00;;;16.70
65290;BMP180;51893;59.754;10.110;2022-08-03T00:24:31;100613.80;;;16.62
65290;BMP180;51893;59.754;10.110;2022-08-03T00:26:59;100613.40;;;16.50
65290;BMP180;51893;59.754;10.110;2022-08-03T00:29:26;100611.80;;;16.50
65290;BMP180;51893;59.754;10.110;2022-08-03T00:31:54;100610.80;;;16.50
65290;BMP180;51893;59.754;10.110;2022-08-03T00:34:27;100605.40;;;16.50
65290;BMP180;51893;59.754;10.110;2022-08-03T00:37:15;100599.00;;;16.42
65290;BMP180;51893;59.754;10.110;2022-08-03T00:39:43;100598.40;;;16.40
65290;BMP180;51893;59.754;10.110;2022-08-03T00:42:14;100605.40;;;16.40
65290;BMP180;51893;59.754;10.110;2022-08-03T00:44:43;100609.40;;;16.40
65290;BMP180;51893;59.754;10.110;2022-08-03T00:47:13;100602.80;;;16.50
65290;BMP180;51893;59.754;10.110;2022-08-03T00:49:41;100599.60;;;16.50
65290;BMP180;51893;59.754;10.110;2022-08-03T00:52:12;100595.40;;;16.60
65290;BMP180;51893;59.754;10.110;2022-08-03T00:54:42;100588.80;;;16.60
65290;BMP180;51893;59.754;10.110;2022-08-03T00:57:10;100584.80;;;16.60
65290;BMP180;51893;59.754;10.110;2022-08-03T00:59:37;100592.20;;;16.60
65290;BMP180;51893;59.754;10.110;2022-08-03T01:02:06;100591.40;;;16.58
65290;BMP180;51893;59.754;10.110;2022-08-03T01:04:34;100593.40;;;16.46
65290;BMP180;51893;59.754;10.110;2022-08-03T01:07:16;100586.40;;;16.40
65290;BMP180;51893;59.754;10.110;2022-08-03T01:13:53;100578.20;;;16.30
65290;BMP180;51893;59.754;10.110;2022-08-03T01:16:47;100583.80;;;16.30
65290;BMP180;51893;59.754;10.110;2022-08-03T01:19:51;100580.40;;;16.20
65290;BMP180;51893;59.754;10.110;2022-08-03T01:22:39;100580.00;;;16.10
65290;BMP180;51893;59.754;10.110;2022-08-03T01:25:33;100581.60;;;16.12
65290;BMP180;51893;59.754;10.110;2022-08-03T01:31:04;100577.40;;;16.10
65290;BMP180;51893;59.754;10.110;2022-08-03T01:34:00;100573.60;;;16.10
65290;BMP180;51893;59.754;10.110;2022-08-03T01:36:35;100574.40;;;16.10
65290;BMP180;51893;59.754;10.110;2022-08-03T01:39:06;100577.40;;;16.10
65290;BMP180;51893;59.754;10.110;2022-08-03T01:41:52;100566.80;;;16.00
65290;BMP180;51893;59.754;10.110;2022-08-03T01:44:33;100567.80;;;16.00
65290;BMP180;51893;59.754;10.110;2022-08-03T01:47:04;100567.60;;;15.96
65290;BMP180;51893;59.754;10.110;2022-08-03T01:49:38;100565.20;;;15.90
65290;BMP180;51893;59.754;10.110;2022-08-03T01:52:07;100566.00;;;15.90
65290;BMP180;51893;59.754;10.110;2022-08-03T01:54:42;100555.60;;;15.80
65290;BMP180;51893;59.754;10.110;2022-08-03T01:57:12;100556.00;;;15.80
65290;BMP180;51893;59.754;10.110;2022-08-03T01:59:42;100558.20;;;15.80
65290;BMP180;51893;59.754;10.110;2022-08-03T02:02:13;100550.20;;;15.80
65290;BMP180;51893;59.754;10.110;2022-08-03T02:05:06;100545.40;;;15.90
65290;BMP180;51893;59.754;10.110;2022-08-03T02:07:41;100535.00;;;15.80
65290;BMP180;51893;59.754;10.110;2022-08-03T02:10:12;100539.80;;;15.80
65290;BMP180;51893;59.754;10.110;2022-08-03T02:12:44;100551.60;;;15.70
65290;BMP180;51893;59.754;10.110;2022-08-03T02:15:15;100566.00;;;15.70
65290;BMP180;51893;59.754;10.110;2022-08-03T02:17:46;100565.80;;;15.62
65290;BMP180;51893;59.754;10.110;2022-08-03T02:20:15;100563.00;;;15.60
65290;BMP180;51893;59.754;10.110;2022-08-03T02:22:45;100556.60;;;15.60
65290;BMP180;51893;59.754;10.110;2022-08-03T02:25:16;100568.40;;;15.60
65290;BMP180;51893;59.754;10.110;2022-08-03T02:27:54;100566.60;;;15.70
65290;BMP180;51893;59.754;10.110;2022-08-03T02:30:35;100560.80;;;15.70
65290;BMP180;51893;59.754;10.110;2022-08-03T02:33:17;100554.40;;;15.70
65290;BMP180;51893;59.754;10.110;2022-08-03T02:35:48;100553.40;;;15.70
65290;BMP180;51893;59.754;10.110;2022-08-03T02:38:20;100554.60;;;15.70
65290;BMP180;51893;59.754;10.110;2022-08-03T02:40:51;100554.20;;;15.70
65290;BMP180;51893;59.754;10.110;2022-08-03T02:43:23;100549.00;;;15.78
65290;BMP180;51893;59.754;10.110;2022-08-03T02:45:53;100542.80;;;15.80
65290;BMP180;51893;59.754;10.110;2022-08-03T02:48:25;100537.60;;;15.80
65290;BMP180;51893;59.754;10.110;2022-08-03T02:50:57;100537.40;;;15.86
65290;BMP180;51893;59.754;10.110;2022-08-03T02:53:28;100539.60;;;15.90
65290;BMP180;51893;59.754;10.110;2022-08-03T02:55:59;100538.20;;;15.90
65290;BMP180;51893;59.754;10.110;2022-08-03T02:58:30;100533.80;;;15.94
65290;BMP180;51893;59.754;10.110;2022-08-03T03:00:59;100525.60;;;16.00
65290;BMP180;51893;59.754;10.110;2022-08-03T03:03:30;100530.60;;;16.00
65290;BMP180;51893;59.754;10.110;2022-08-03T03:06:03;100534.80;;;16.02
65290;BMP180;51893;59.754;10.110;2022-08-03T03:08:32;100538.00;;;16.00
65290;BMP180;51893;59.754;10.110;2022-08-03T03:11:03;100540.60;;;16.00
65290;BMP180;51893;59.754;10.110;2022-08-03T03:13:33;100538.40;;;16.00
65290;BMP180;51893;59.754;10.110;2022-08-03T03:16:04;100535.20;;;16.00
65290;BMP180;51893;59.754;10.110;2022-08-03T03:18:33;100526.20;;;16.00
65290;BMP180;51893;59.754;10.110;2022-08-03T03:21:03;100540.40;;;16.00
65290;BMP180;51893;59.754;10.110;2022-08-03T03:23:36;100533.20;;;16.00
65290;BMP180;51893;59.754;10.110;2022-08-03T03:26:06;100527.80;;;15.98
65290;BMP180;51893;59.754;10.110;2022-08-03T03:28:35;100523.40;;;16.00
65290;BMP180;51893;59.754;10.110;2022-08-03T03:31:07;100521.80;;;16.00
65290;BMP180;51893;59.754;10.110;2022-08-03T03:33:37;100527.00;;;16.10
65290;BMP180;51893;59.754;10.110;2022-08-03T03:36:06;100531.80;;;16.10
65290;BMP180;51893;59.754;10.110;2022-08-03T03:38:35;100534.40;;;16.20
65290;BMP180;51893;59.754;10.110;2022-08-03T03:41:04;100537.80;;;16.20
65290;BMP180;51893;59.754;10.110;2022-08-03T03:43:32;100532.00;;;16.20
65290;BMP180;51893;59.754;10.110;2022-08-03T03:46:01;100533.40;;;16.20
65290;BMP180;51893;59.754;10.110;2022-08-03T03:48:29;100536.60;;;16.10
65290;BMP180;51893;59.754;10.110;2022-08-03T03:51:00;100532.20;;;16.10
65290;BMP180;51893;59.754;10.110;2022-08-03T03:53:27;100540.40;;;16.12
65290;BMP180;51893;59.754;10.110;2022-08-03T03:55:55;100550.00;;;16.20
65290;BMP180;51893;59.754;10.110;2022-08-03T03:58:31;100543.60;;;16.20
65290;BMP180;51893;59.754;10.110;2022-08-03T04:01:00;100544.00;;;16.20
65290;BMP180;51893;59.754;10.110;2022-08-03T04:03:28;100546.00;;;16.12
65290;BMP180;51893;59.754;10.110;2022-08-03T04:05:56;100540.40;;;16.10
65290;BMP180;51893;59.754;10.110;2022-08-03T04:08:44;100551.00;;;16.10
65290;BMP180;51893;59.754;10.110;2022-08-03T04:11:38;100544.40;;;16.10
65290;BMP180;51893;59.754;10.110;2022-08-03T04:16:48;100534.20;;;16.10
65290;BMP180;51893;59.754;10.110;2022-08-03T04:19:38;100536.00;;;16.20
65290;BMP180;51893;59.754;10.110;2022-08-03T04:22:11;100527.40;;;16.22
65290;BMP180;51893;59.754;10.110;2022-08-03T04:24:51;100515.40;;;16.30
65290;BMP180;51893;59.754;10.110;2022-08-03T04:27:24;100523.40;;;16.30
65290;BMP180;51893;59.754;10.110;2022-08-03T04:29:55;100517.40;;;16.30
65290;BMP180;51893;59.754;10.110;2022-08-03T04:32:25;100519.80;;;16.38
65290;BMP180;51893;59.754;10.110;2022-08-03T04:34:55;100520.80;;;16.40
65290;BMP180;51893;59.754;10.110;2022-08-03T04:37:44;100524.00;;;16.40
65290;BMP180;51893;59.754;10.110;2022-08-03T04:40:21;100525.20;;;16.48
65290;BMP180;51893;59.754;10.110;2022-08-03T04:42:58;100527.60;;;16.50
65290;BMP180;51893;59.754;10.110;2022-08-03T04:45:28;100521.00;;;16.50
65290;BMP180;51893;59.754;10.110;2022-08-03T04:47:57;100528.00;;;16.54
65290;BMP180;51893;59.754;10.110;2022-08-03T04:50:29;100527.40;;;16.54
65290;BMP180;51893;59.754;10.110;2022-08-03T04:52:58;100534.00;;;16.60
65290;BMP180;51893;59.754;10.110;2022-08-03T04:55:29;100532.00;;;16.60
65290;BMP180;51893;59.754;10.110;2022-08-03T04:58:00;100536.80;;;16.60
65290;BMP180;51893;59.754;10.110;2022-08-03T05:00:29;100534.20;;;16.60
65290;BMP180;51893;59.754;10.110;2022-08-03T05:02:57;100536.00;;;16.64
65290;BMP180;51893;59.754;10.110;2022-08-03T05:05:25;100545.60;;;16.80
65290;BMP180;51893;59.754;10.110;2022-08-03T05:08:13;100544.20;;;16.94
65290;BMP180;51893;59.754;10.110;2022-08-03T05:10:41;100543.60;;;17.00
65290;BMP180;51893;59.754;10.110;2022-08-03T05:13:08;100552.80;;;17.10
65290;BMP180;51893;59.754;10.110;2022-08-03T05:15:40;100560.20;;;17.10
65290;BMP180;51893;59.754;10.110;2022-08-03T05:18:10;100566.60;;;17.20
65290;BMP180;51893;59.754;10.110;2022-08-03T05:20:40;100562.40;;;17.20
65290;BMP180;51893;59.754;10.110;2022-08-03T05:23:08;100563.40;;;17.30
65290;BMP180;51893;59.754;10.110;2022-08-03T05:25:36;100562.40;;;17.30
65290;BMP180;51893;59.754;10.110;2022-08-03T05:28:05;100569.20;;;17.40
65290;BMP180;51893;59.754;10.110;2022-08-03T05:30:33;100565.80;;;17.40
65290;BMP180;51893;59.754;10.110;2022-08-03T05:33:02;100570.00;;;17.40
65290;BMP180;51893;59.754;10.110;2022-08-03T05:35:31;100571.40;;;17.40
65290;BMP180;51893;59.754;10.110;2022-08-03T05:38:21;100558.20;;;17.56
65290;BMP180;51893;59.754;10.110;2022-08-03T05:40:57;100545.40;;;17.60
65290;BMP180;51893;59.754;10.110;2022-08-03T05:43:45;100543.20;;;17.80
65290;BMP180;51893;59.754;10.110;2022-08-03T05:46:13;100549.80;;;17.90
65290;BMP180;51893;59.754;10.110;2022-08-03T05:48:42;100544.80;;;18.00
65290;BMP180;51893;59.754;10.110;2022-08-03T05:51:10;100539.20;;;18.16
65290;BMP180;51893;59.754;10.110;2022-08-03T05:53:40;100539.80;;;18.30
65290;BMP180;51893;59.754;10.110;2022-08-03T05:56:09;100545.40;;;18.50
65290;BMP180;51893;59.754;10.110;2022-08-03T05:58:45;100542.60;;;18.60
65290;BMP180;51893;59.754;10.110;2022-08-03T06:01:15;100546.60;;;18.70
65290;BMP180;51893;59.754;10.110;2022-08-03T06:03:44;100551.20;;;18.76
65290;BMP180;51893;59.754;10.110;2022-08-03T06:06:13;100552.60;;;18.80
65290;BMP180;51893;59.754;10.110;2022-08-03T06:08:42;100559.60;;;18.80
65290;BMP180;51893;59.754;10.110;2022-08-03T06:11:11;100555.00;;;18.80
65290;BMP180;51893;59.754;10.110;2022-08-03T06:13:39;100554.20;;;18.70
65290;BMP180;51893;59.754;10.110;2022-08-03T06:16:08;100553.60;;;18.74
65290;BMP180;51893;59.754;10.110;2022-08-03T06:18:37;100566.20;;;18.80
65290;BMP180;51893;59.754;10.110;2022-08-03T06:21:05;100571.40;;;18.80
65290;BMP180;51893;59.754;10.110;2022-08-03T06:23:44;100576.00;;;18.80
65290;BMP180;51893;59.754;10.110;2022-08-03T06:26:24;100584.80;;;18.80
65290;BMP180;51893;59.754;10.110;2022-08-03T06:28:53;100579.00;;;18.80
65290;BMP180;51893;59.754;10.110;2022-08-03T06:31:25;100574.40;;;18.80
65290;BMP180;51893;59.754;10.110;2022-08-03T06:34:04;100576.20;;;18.88
65290;BMP180;51893;59.754;10.110;2022-08-03T06:36:52;100586.20;;;18.90
65290;BMP180;51893;59.754;10.110;2022-08-03T06:39:28;100578.20;;;18.90
65290;BMP180;51893;59.754;10.110;2022-08-03T06:41:56;100582.40;;;18.90
65290;BMP180;51893;59.754;10.110;2022-08-03T06:44:24;100580.80;;;18.90
65290;BMP180;51893;59.754;10.110;2022-08-03T06:46:52;100569.60;;;18.90
65290;BMP180;51893;59.754;10.110;2022-08-03T06:49:20;100562.20;;;18.90
65290;BMP180;51893;59.754;10.110;2022-08-03T06:51:48;100560.40;;;18.90
65290;BMP180;51893;59.754;10.110;2022-08-03T06:54:34;100552.80;;;18.90
65290;BMP180;51893;59.754;10.110;2022-08-03T06:57:03;100555.60;;;18.96
65290;BMP180;51893;59.754;10.110;2022-08-03T06:59:31;100551.20;;;19.00
65290;BMP180;51893;59.754;10.110;2022-08-03T07:02:19;100539.60;;;19.00
65290;BMP180;51893;59.754;10.110;2022-08-03T07:04:48;100542.00;;;19.00
65290;BMP180;51893;59.754;10.110;2022-08-03T07:07:15;100531.80;;;19.00
65290;BMP180;51893;59.754;10.110;2022-08-03T07:09:44;100530.20;;;19.00
65290;BMP180;51893;59.754;10.110;2022-08-03T07:12:29;100527.20;;;19.10
65290;BMP180;51893;59.754;10.110;2022-08-03T07:14:59;100519.00;;;19.10
65290;BMP180;51893;59.754;10.110;2022-08-03T07:17:34;100504.20;;;19.10
65290;BMP180;51893;59.754;10.110;2022-08-03T07:20:06;100481.60;;;19.20
65290;BMP180;51893;59.754;10.110;2022-08-03T07:22:35;100481.80;;;19.20
65290;BMP180;51893;59.754;10.110;2022-08-03T07:25:03;100476.60;;;19.20
65290;BMP180;51893;59.754;10.110;2022-08-03T07:27:32;100481.40;;;19.30
65290;BMP180;51893;59.754;10.110;2022-08-03T07:30:01;100471.20;;;19.30
65290;BMP180;51893;59.754;10.110;2022-08-03T07:32:29;100475.00;;;19.40
65290;BMP180;51893;59.754;10.110;2022-08-03T07:34:58;100497.80;;;19.40
65290;BMP180;51893;59.754;10.110;2022-08-03T07:37:29;100511.80;;;19.50
65290;BMP180;51893;59.754;10.110;2022-08-03T07:39:59;100519.80;;;19.52
65290;BMP180;51893;59.754;10.110;2022-08-03T07:42:29;100524.80;;;19.60
65290;BMP180;51893;59.754;10.110;2022-08-03T07:44:58;100525.20;;;19.70
65290;BMP180;51893;59.754;10.110;2022-08-03T07:47:30;100522.20;;;19.80
65290;BMP180;51893;59.754;10.110;2022-08-03T07:50:05;100531.00;;;19.96
65290;BMP180;51893;59.754;10.110;2022-08-03T07:52:35;100545.40;;;20.10
65290;BMP180;51893;59.754;10.110;2022-08-03T07:55:19;100557.40;;;20.10
65290;BMP180;51893;59.754;10.110;2022-08-03T07:58:09;100562.20;;;20.18
65290;BMP180;51893;59.754;10.110;2022-08-03T08:00:39;100572.20;;;20.30
65290;BMP180;51893;59.754;10.110;2022-08-03T08:03:07;100574.60;;;20.44
65290;BMP180;51893;59.754;10.110;2022-08-03T08:05:35;100566.60;;;20.62
65290;BMP180;51893;59.754;10.110;2022-08-03T08:08:03;100571.20;;;20.74
65290;BMP180;51893;59.754;10.110;2022-08-03T08:10:31;100576.00;;;20.80
65290;BMP180;51893;59.754;10.110;2022-08-03T08:13:02;100586.60;;;20.90
65290;BMP180;51893;59.754;10.110;2022-08-03T08:15:31;100602.40;;;20.90
65290;BMP180;51893;59.754;10.110;2022-08-03T08:18:00;100609.00;;;20.90
65290;BMP180;51893;59.754;10.110;2022-08-03T08:20:34;100608.80;;;20.90
65290;BMP180;51893;59.754;10.110;2022-08-03T08:23:07;100618.00;;;20.90
65290;BMP180;51893;59.754;10.110;2022-08-03T08:25:55;100603.40;;;20.90
65290;BMP180;51893;59.754;10.110;2022-08-03T08:28:23;100594.60;;;20.90
65290;BMP180;51893;59.754;10.110;2022-08-03T08:31:00;100578.20;;;21.02
65290;BMP180;51893;59.754;10.110;2022-08-03T08:33:29;100578.40;;;21.20
65290;BMP180;51893;59.754;10.110;2022-08-03T08:36:17;100587.80;;;21.40
65290;BMP180;51893;59.754;10.110;2022-08-03T08:38:46;100578.80;;;21.60
65290;BMP180;51893;59.754;10.110;2022-08-03T08:41:15;100580.80;;;21.80
65290;BMP180;51893;59.754;10.110;2022-08-03T08:43:43;100577.60;;;21.90
65290;BMP180;51893;59.754;10.110;2022-08-03T08:46:15;100569.60;;;21.90
65290;BMP180;51893;59.754;10.110;2022-08-03T08:48:52;100564.60;;;21.90
65290;BMP180;51893;59.754;10.110;2022-08-03T08:51:27;100568.80;;;21.90
65290;BMP180;51893;59.754;10.110;2022-08-03T08:54:20;100586.60;;;22.00
65290;BMP180;51893;59.754;10.110;2022-08-03T08:56:55;100580.00;;;22.10
65290;BMP180;51893;59.754;10.110;2022-08-03T08:59:24;100568.00;;;22.34
65290;BMP180;51893;59.754;10.110;2022-08-03T09:01:56;100569.00;;;22.60
65290;BMP180;51893;59.754;10.110;2022-08-03T09:04:27;100569.60;;;22.80
65290;BMP180;51893;59.754;10.110;2022-08-03T09:06:55;100584.40;;;23.00
65290;BMP180;51893;59.754;10.110;2022-08-03T09:09:43;100594.00;;;23.00
65290;BMP180;51893;59.754;10.110;2022-08-03T09:12:37;100578.00;;;23.12
65290;BMP180;51893;59.754;10.110;2022-08-03T09:15:35;100580.40;;;23.20
65290;BMP180;51893;59.754;10.110;2022-08-03T09:18:05;100594.00;;;23.20
65290;BMP180;51893;59.754;10.110;2022-08-03T09:20:34;100590.80;;;23.20
65290;BMP180;51893;59.754;10.110;2022-08-03T09:23:08;100588.00;;;23.20
65290;BMP180;51893;59.754;10.110;2022-08-03T09:25:58;100593.00;;;23.20
65290;BMP180;51893;59.754;10.110;2022-08-03T09:28:34;100603.00;;;23.20
65290;BMP180;51893;59.754;10.110;2022-08-03T09:31:43;100609.80;;;23.20
65290;BMP180;51893;59.754;10.110;2022-08-03T09:34:15;100622.40;;;23.30
65290;BMP180;51893;59.754;10.110;2022-08-03T09:36:45;100614.40;;;23.30
65290;BMP180;51893;59.754;10.110;2022-08-03T09:39:21;100618.40;;;23.30
65290;BMP180;51893;59.754;10.110;2022-08-03T09:42:14;100616.00;;;23.40
65290;BMP180;51893;59.754;10.110;2022-08-03T09:44:48;100612.80;;;23.50
65290;BMP180;51893;59.754;10.110;2022-08-03T09:47:28;100612.60;;;23.60
65290;BMP180;51893;59.754;10.110;2022-08-03T09:50:00;100611.80;;;23.60
65290;BMP180;51893;59.754;10.110;2022-08-03T09:52:32;100614.60;;;23.70
65290;BMP180;51893;59.754;10.110;2022-08-03T09:55:19;100621.60;;;23.64
65290;BMP180;51893;59.754;10.110;2022-08-03T09:58:09;100628.60;;;23.50
65290;BMP180;51893;59.754;10.110;2022-08-03T10:01:04;100627.60;;;23.36
65290;BMP180;51893;59.754;10.110;2022-08-03T10:03:37;100627.80;;;23.26
65290;BMP180;51893;59.754;10.110;2022-08-03T10:06:25;100619.60;;;23.10
65290;BMP180;51893;59.754;10.110;2022-08-03T10:09:09;100628.20;;;23.00
65290;BMP180;51893;59.754;10.110;2022-08-03T10:11:39;100609.80;;;22.90
65290;BMP180;51893;59.754;10.110;2022-08-03T10:14:11;100603.20;;;23.00
65290;BMP180;51893;59.754;10.110;2022-08-03T10:16:48;100594.40;;;23.14
65290;BMP180;51893;59.754;10.110;2022-08-03T10:19:16;100587.40;;;23.30
65290;BMP180;51893;59.754;10.110;2022-08-03T10:22:08;100583.60;;;23.40
65290;BMP180;51893;59.754;10.110;2022-08-03T10:24:39;100575.20;;;23.60
65290;BMP180;51893;59.754;10.110;2022-08-03T10:27:13;100587.00;;;23.80
65290;BMP180;51893;59.754;10.110;2022-08-03T10:29:52;100569.20;;;23.90
65290;BMP180;51893;59.754;10.110;2022-08-03T10:32:30;100572.80;;;24.20
65290;BMP180;51893;59.754;10.110;2022-08-03T10:35:13;100572.60;;;24.30
65290;BMP180;51893;59.754;10.110;2022-08-03T10:37:57;100579.60;;;24.40
65290;BMP180;51893;59.754;10.110;2022-08-03T10:40:28;100589.00;;;24.50
65290;BMP180;51893;59.754;10.110;2022-08-03T10:43:25;100598.60;;;24.50
65290;BMP180;51893;59.754;10.110;2022-08-03T10:45:55;100600.20;;;24.50
65290;BMP180;51893;59.754;10.110;2022-08-03T10:48:24;100607.80;;;24.68
65290;BMP180;51893;59.754;10.110;2022-08-03T10:50:53;100605.00;;;24.86
65290;BMP180;51893;59.754;10.110;2022-08-03T10:53:37;100616.60;;;24.92
65290;BMP180;51893;59.754;10.110;2022-08-03T10:59:19;100613.60;;;25.20
65290;BMP180;51893;59.754;10.110;2022-08-03T11:02:02;100612.00;;;25.26
65290;BMP180;51893;59.754;10.110;2022-08-03T11:04:30;100600.80;;;25.32
65290;BMP180;51893;59.754;10.110;2022-08-03T11:09:51;100607.20;;;25.52
65290;BMP180;51893;59.754;10.110;2022-08-03T11:12:32;100625.80;;;25.50
65290;BMP180;51893;59.754;10.110;2022-08-03T11:15:05;100625.00;;;25.40
65290;BMP180;51893;59.754;10.110;2022-08-03T11:17:34;100627.20;;;25.48
65290;BMP180;51893;59.754;10.110;2022-08-03T11:20:54;100629.00;;;25.40
65290;BMP180;51893;59.754;10.110;2022-08-03T11:23:46;100621.20;;;25.40
65290;BMP180;51893;59.754;10.110;2022-08-03T11:26:33;100626.80;;;25.40
65290;BMP180;51893;59.754;10.110;2022-08-03T11:29:29;100621.20;;;25.40
65290;BMP180;51893;59.754;10.110;2022-08-03T11:31:57;100614.40;;;25.30
65290;BMP180;51893;59.754;10.110;2022-08-03T11:34:25;100605.20;;;25.30
65290;BMP180;51893;59.754;10.110;2022-08-03T11:37:23;100597.00;;;25.30
65290;BMP180;51893;59.754;10.110;2022-08-03T11:39:57;100601.60;;;25.40
65290;BMP180;51893;59.754;10.110;2022-08-03T11:44:58;100597.00;;;25.40
65290;BMP180;51893;59.754;10.110;2022-08-03T11:47:28;100594.40;;;25.50
65290;BMP180;51893;59.754;10.110;2022-08-03T11:49:59;100593.80;;;25.60
65290;BMP180;51893;59.754;10.110;2022-08-03T11:52:38;100596.00;;;25.70
65290;BMP180;51893;59.754;10.110;2022-08-03T11:55:12;100604.60;;;25.80
65290;BMP180;51893;59.754;10.110;2022-08-03T11:57:41;100609.00;;;25.90
65290;BMP180;51893;59.754;10.110;2022-08-03T12:00:31;100609.40;;;26.00
65290;BMP180;51893;59.754;10.110;2022-08-03T12:03:08;100608.20;;;26.22
65290;BMP180;51893;59.754;10.110;2022-08-03T12:08:32;100630.80;;;26.30
65290;BMP180;51893;59.754;10.110;2022-08-03T12:11:04;100631.80;;;26.30
65290;BMP180;51893;59.754;10.110;2022-08-03T12:16:25;100628.20;;;25.90
65290;BMP180;51893;59.754;10.110;2022-08-03T12:19:01;100625.20;;;25.70
65290;BMP180;51893;59.754;10.110;2022-08-03T12:21:30;100613.80;;;25.70
65290;BMP180;51893;59.754;10.110;2022-08-03T12:24:04;100620.80;;;25.70
65290;BMP180;51893;59.754;10.110;2022-08-03T12:26:48;100610.60;;;25.50
65290;BMP180;51893;59.754;10.110;2022-08-03T12:29:26;100624.80;;;25.30
65290;BMP180;51893;59.754;10.110;2022-08-03T12:31:54;100618.80;;;25.16
65290;BMP180;51893;59.754;10.110;2022-08-03T12:34:23;100614.60;;;25.20
65290;BMP180;51893;59.754;10.110;2022-08-03T12:36:54;100609.00;;;25.40
65290;BMP180;51893;59.754;10.110;2022-08-03T12:39:25;100621.20;;;25.60
65290;BMP180;51893;59.754;10.110;2022-08-03T12:41:55;100615.80;;;25.70
65290;BMP180;51893;59.754;10.110;2022-08-03T12:44:34;100603.80;;;25.94
65290;BMP180;51893;59.754;10.110;2022-08-03T12:47:03;100609.40;;;26.10
65290;BMP180;51893;59.754;10.110;2022-08-03T12:49:55;100616.20;;;26.10
65290;BMP180;51893;59.754;10.110;2022-08-03T12:52:23;100615.80;;;26.00
65290;BMP180;51893;59.754;10.110;2022-08-03T12:54:59;100606.20;;;26.20
65290;BMP180;51893;59.754;10.110;2022-08-03T12:57:40;100608.20;;;26.40
65290;BMP180;51893;59.754;10.110;2022-08-03T13:00:18;100623.20;;;26.50
65290;BMP180;51893;59.754;10.110;2022-08-03T13:03:04;100615.20;;;26.40
65290;BMP180;51893;59.754;10.110;2022-08-03T13:05:53;100614.00;;;26.16
65290;BMP180;51893;59.754;10.110;2022-08-03T13:08:24;100618.80;;;25.88
65290;BMP180;51893;59.754;10.110;2022-08-03T13:10:52;100609.60;;;25.60
65290;BMP180;51893;59.754;10.110;2022-08-03T13:13:39;100606.60;;;25.40
65290;BMP180;51893;59.754;10.110;2022-08-03T13:16:07;100605.20;;;25.52
65290;BMP180;51893;59.754;10.110;2022-08-03T13:18:35;100610.40;;;25.70
65290;BMP180;51893;59.754;10.110;2022-08-03T13:21:04;100600.20;;;25.70
65290;BMP180;51893;59.754;10.110;2022-08-03T13:23:32;100609.80;;;25.80
65290;BMP180;51893;59.754;10.110;2022-08-03T13:26:00;100608.40;;;25.90
65290;BMP180;51893;59.754;10.110;2022-08-03T13:28:28;100615.80;;;25.86
65290;BMP180;51893;59.754;10.110;2022-08-03T13:30:56;100616.80;;;25.70
65290;BMP180;51893;59.754;10.110;2022-08-03T13:33:26;100608.60;;;25.70
65290;BMP180;51893;59.754;10.110;2022-08-03T13:35:55;100606.40;;;25.96
65290;BMP180;51893;59.754;10.110;2022-08-03T13:38:23;100602.00;;;26.20
65290;BMP180;51893;59.754;10.110;2022-08-03T13:40:54;100610.00;;;26.40
65290;BMP180;51893;59.754;10.110;2022-08-03T13:43:22;100617.20;;;26.50
65290;BMP180;51893;59.754;10.110;2022-08-03T13:45:50;100610.40;;;26.50
65290;BMP180;51893;59.754;10.110;2022-08-03T13:48:24;100622.80;;;26.60
65290;BMP180;51893;59.754;10.110;2022-08-03T13:51:04;100616.00;;;26.52
65290;BMP180;51893;59.754;10.110;2022-08-03T13:53:52;100618.60;;;26.52
65290;BMP180;51893;59.754;10.110;2022-08-03T13:56:20;100604.20;;;26.70
65290;BMP180;51893;59.754;10.110;2022-08-03T13:58:48;100611.60;;;26.80
65290;BMP180;51893;59.754;10.110;2022-08-03T14:01:15;100623.20;;;27.00
65290;BMP180;51893;59.754;10.110;2022-08-03T14:03:49;100608.80;;;27.20
65290;BMP180;51893;59.754;10.110;2022-08-03T14:06:21;100631.80;;;27.30
65290;BMP180;51893;59.754;10.110;2022-08-03T14:08:50;100639.80;;;27.08
65290;BMP180;51893;59.754;10.110;2022-08-03T14:11:18;100638.40;;;26.72
65290;BMP180;51893;59.754;10.110;2022-08-03T14:13:46;100635.40;;;26.40
65290;BMP180;51893;59.754;10.110;2022-08-03T14:16:14;100629.00;;;26.20
65290;BMP180;51893;59.754;10.110;2022-08-03T14:18:43;100621.20;;;26.20
65290;BMP180;51893;59.754;10.110;2022-08-03T14:21:12;100624.40;;;26.20
65290;BMP180;51893;59.754;10.110;2022-08-03T14:23:40;100638.20;;;26.30
65290;BMP180;51893;59.754;10.110;2022-08-03T14:26:09;100632.40;;;26.12
65290;BMP180;51893;59.754;10.110;2022-08-03T14:28:38;100625.60;;;25.90
65290;BMP180;51893;59.754;10.110;2022-08-03T14:31:06;100613.80;;;25.80
65290;BMP180;51893;59.754;10.110;2022-08-03T14:33:54;100614.40;;;26.06
65290;BMP180;51893;59.754;10.110;2022-08-03T14:36:22;100613.60;;;26.10
65290;BMP180;51893;59.754;10.110;2022-08-03T14:38:50;100620.00;;;26.20
65290;BMP180;51893;59.754;10.110;2022-08-03T14:41:18;100607.60;;;26.30
65290;BMP180;51893;59.754;10.110;2022-08-03T14:43:47;100611.20;;;26.40
65290;BMP180;51893;59.754;10.110;2022-08-03T14:46:30;100618.80;;;26.50